createdAt,value
2019-03-15T00:03:07.573Z,5.20
2019-03-15T00:09:13.424Z,4.30
2019-03-15T00:15:19.202Z,4.80
2019-03-15T00:21:25.096Z,4.07
2019-03-15T00:27:30.823Z,4.70
2019-03-15T00:33:36.642Z,4.47
2019-03-15T00:39:42.595Z,4.27
2019-03-15T00:45:48.610Z,4.93
2019-03-15T00:51:54.432Z,4.93
2019-03-15T00:58:00.224Z,4.80
2019-03-15T01:04:09.245Z,5.03
2019-03-15T01:10:13.698Z,5.30
2019-03-15T01:16:19.484Z,6.27
2019-03-15T01:22:25.398Z,6.77
2019-03-15T01:28:31.141Z,6.50
2019-03-15T01:34:36.868Z,6.90
2019-03-15T01:40:42.676Z,6.27
2019-03-15T01:46:48.477Z,5.63
2019-03-15T01:52:54.511Z,5.87
2019-03-15T01:59:00.285Z,5.13
2019-03-15T02:05:06.172Z,5.13
2019-03-15T02:11:11.903Z,5.30
2019-03-15T02:17:17.737Z,5.00
2019-03-15T02:23:23.621Z,5.83
2019-03-15T02:29:29.544Z,5.17
2019-03-15T02:35:35.638Z,5.00
2019-03-15T02:41:41.495Z,4.40
2019-03-15T02:47:47.252Z,4.30
2019-03-15T02:53:53.029Z,4.80
2019-03-15T02:59:58.765Z,4.47
2019-03-15T03:06:04.476Z,3.90
2019-03-15T03:12:10.271Z,3.53
2019-03-15T03:18:16.084Z,3.90
2019-03-15T03:24:22.203Z,4.47
2019-03-15T03:30:28.018Z,5.53
2019-03-15T03:36:33.836Z,5.70
2019-03-15T03:42:39.557Z,5.70
2019-03-15T03:48:45.330Z,4.07
2019-03-15T03:54:51.484Z,3.70
2019-03-15T04:00:57.411Z,3.67
2019-03-15T04:07:03.198Z,3.23
2019-03-15T04:13:08.899Z,3.53
2019-03-15T04:19:14.793Z,2.90
2019-03-15T04:25:20.520Z,3.27
2019-03-15T04:31:26.429Z,3.80
2019-03-15T04:37:32.376Z,3.67
2019-03-15T04:43:38.268Z,2.97
2019-03-15T04:49:44.137Z,3.30
2019-03-15T04:55:50.211Z,3.23
2019-03-15T05:01:55.990Z,3.57
2019-03-15T05:08:01.952Z,4.10
2019-03-15T05:14:07.867Z,3.17
2019-03-15T05:20:13.645Z,3.40
2019-03-15T05:26:19.438Z,3.50
2019-03-15T05:32:25.196Z,4.40
2019-03-15T05:38:31.021Z,4.07
2019-03-15T05:44:36.830Z,3.97
2019-03-15T05:50:42.543Z,3.30
2019-03-15T05:56:48.304Z,4.37
2019-03-15T06:02:54.260Z,3.77
2019-03-15T06:09:00.164Z,4.07
2019-03-15T06:15:06.333Z,4.27
2019-03-15T06:21:12.096Z,4.20
2019-03-15T06:27:17.908Z,4.27
2019-03-15T06:33:23.663Z,4.73
2019-03-15T06:39:29.441Z,4.67
2019-03-15T06:45:35.210Z,4.53
2019-03-15T06:51:41.083Z,4.90
2019-03-15T06:57:47.158Z,5.03
2019-03-15T07:03:53.192Z,4.87
2019-03-15T07:09:59.027Z,5.53
2019-03-15T07:16:04.987Z,5.73
2019-03-15T07:22:10.789Z,5.00
2019-03-15T07:28:16.534Z,5.50
2019-03-15T07:34:22.353Z,5.10
2019-03-15T07:40:28.128Z,5.13
2019-03-15T07:46:33.871Z,4.63
2019-03-15T07:52:39.825Z,6.20
2019-03-15T07:58:45.577Z,5.17
2019-03-15T08:04:51.496Z,6.00
2019-03-15T08:10:58.243Z,7.83
2019-03-15T08:17:04.334Z,5.50
2019-03-15T08:23:10.285Z,4.83
2019-03-15T08:29:16.015Z,6.20
2019-03-15T08:35:24.392Z,4.90
2019-03-15T08:41:29.570Z,5.20
2019-03-15T08:47:35.734Z,5.53
2019-03-15T08:53:41.552Z,5.40
2019-03-15T08:59:55.530Z,4.33
2019-03-15T09:05:55.153Z,5.20
2019-03-15T09:12:01.015Z,5.13
2019-03-15T09:18:06.910Z,5.63
2019-03-15T09:24:13.398Z,5.00
2019-03-15T09:30:24.175Z,5.70
2019-03-15T09:36:27.296Z,5.93
2019-03-15T09:42:33.061Z,7.33
2019-03-15T09:48:38.947Z,8.57
2019-03-15T09:54:44.771Z,8.27
2019-03-15T10:00:50.607Z,9.07
2019-03-15T10:06:56.915Z,10.57
2019-03-15T10:13:06.282Z,10.90
2019-03-15T10:19:10.378Z,10.20
2019-03-15T10:25:16.203Z,11.23
2019-03-15T10:31:22.071Z,9.27
2019-03-15T10:37:27.801Z,9.13
2019-03-15T10:43:33.676Z,9.87
2019-03-15T10:49:39.416Z,9.67
2019-03-15T10:55:59.092Z,9.73
2019-03-15T11:01:54.069Z,9.93
2019-03-15T11:08:00.132Z,11.10
2019-03-15T11:14:05.930Z,11.27
2019-03-15T11:20:12.320Z,13.27
2019-03-15T11:26:18.265Z,12.07
2019-03-15T11:32:24.110Z,14.37
2019-03-15T11:38:29.943Z,13.17
2019-03-15T11:44:35.760Z,13.67
2019-03-15T11:50:41.531Z,12.93
2019-03-15T11:56:50.613Z,11.63
2019-03-15T12:02:57.072Z,12.70
2019-03-15T12:09:02.958Z,11.60
2019-03-15T12:15:10.103Z,11.43
2019-03-15T12:21:15.853Z,10.97
2019-03-15T12:27:21.680Z,13.60
2019-03-15T12:33:28.783Z,12.00
2019-03-15T12:39:34.682Z,8.33
2019-03-15T12:45:40.689Z,8.57
2019-03-15T12:51:46.794Z,7.47
2019-03-15T12:57:52.753Z,7.93
2019-03-15T13:03:58.715Z,6.57
2019-03-15T13:10:04.584Z,5.47
2019-03-15T13:16:10.623Z,5.90
2019-03-15T13:22:16.367Z,6.47
2019-03-15T13:28:22.162Z,6.00
2019-03-15T13:34:28.145Z,5.33
2019-03-15T13:40:33.865Z,6.63
2019-03-15T13:46:39.638Z,6.50
2019-03-15T13:52:45.485Z,6.20
2019-03-15T13:58:57.125Z,6.03
2019-03-15T14:04:58.771Z,5.13
2019-03-15T14:11:04.675Z,4.37
2019-03-15T14:17:10.841Z,4.37
2019-03-15T14:23:16.802Z,3.90
2019-03-15T14:29:22.939Z,3.30
2019-03-15T14:35:28.847Z,3.50
2019-03-15T14:41:34.804Z,3.20
2019-03-15T14:47:40.697Z,3.93
2019-03-15T14:53:46.607Z,3.50
2019-03-15T14:59:52.514Z,4.27
2019-03-15T15:05:58.322Z,3.77
2019-03-15T15:12:04.098Z,4.07
2019-03-15T15:18:09.988Z,3.30
2019-03-15T15:24:16.074Z,2.87
2019-03-15T15:30:21.848Z,2.87
2019-03-15T15:36:27.774Z,4.50
2019-03-15T15:42:33.912Z,4.47
2019-03-15T15:48:39.729Z,5.60
2019-03-15T15:54:45.580Z,6.73
2019-03-15T16:00:51.643Z,7.33
2019-03-15T16:06:57.404Z,6.90
2019-03-15T16:13:16.545Z,4.43
2019-03-15T16:19:11.219Z,4.80
2019-03-15T16:25:17.070Z,6.30
2019-03-15T16:31:22.909Z,7.27
2019-03-15T16:37:29.006Z,6.40
2019-03-15T16:43:35.106Z,6.93
2019-03-15T16:49:40.922Z,5.07
2019-03-15T16:55:46.762Z,6.50
2019-03-15T17:01:54.294Z,3.97
2019-03-15T17:08:00.365Z,3.03
2019-03-15T17:14:06.268Z,2.27
2019-03-15T17:20:12.665Z,2.43
2019-03-15T17:26:18.585Z,3.10
2019-03-15T17:32:24.415Z,3.30
2019-03-15T17:38:30.169Z,3.27
2019-03-15T17:44:36.121Z,3.67
2019-03-15T17:50:42.011Z,3.67
2019-03-15T17:56:47.833Z,2.60
2019-03-15T18:02:53.576Z,2.43
2019-03-15T18:08:59.817Z,2.57
2019-03-15T18:15:06.069Z,2.53
2019-03-15T18:21:12.159Z,2.70
2019-03-15T18:27:17.943Z,2.40
2019-03-15T18:33:23.850Z,2.70
2019-03-15T18:39:29.721Z,2.70
2019-03-15T18:45:35.476Z,3.33
2019-03-15T18:51:41.419Z,2.83
2019-03-15T18:57:47.554Z,3.13
2019-03-15T19:03:53.384Z,4.00
2019-03-15T19:09:59.239Z,3.40
2019-03-15T19:16:05.291Z,6.23
2019-03-15T19:22:11.112Z,5.23
2019-03-15T19:28:18.199Z,5.33
2019-03-15T19:34:24.639Z,3.67
2019-03-15T19:40:30.748Z,3.43
2019-03-15T19:46:36.613Z,4.23
2019-03-15T19:52:42.417Z,3.67
2019-03-15T19:58:48.433Z,4.47
2019-03-15T20:04:54.475Z,4.27
2019-03-15T20:11:00.399Z,4.60
2019-03-15T20:17:06.328Z,3.83
2019-03-15T20:23:12.293Z,4.53
2019-03-15T20:29:18.188Z,5.03
2019-03-15T20:35:24.123Z,4.23
2019-03-15T20:41:29.983Z,4.27
2019-03-15T20:47:36.309Z,3.97
2019-03-15T20:53:42.363Z,4.47
2019-03-15T20:59:48.197Z,3.53
2019-03-15T21:05:55.646Z,4.13
2019-03-15T21:12:01.585Z,5.27
2019-03-15T21:18:07.680Z,4.43
2019-03-15T21:24:13.738Z,4.90
2019-03-15T21:30:20.035Z,4.30
2019-03-15T21:36:26.180Z,4.43
2019-03-15T21:42:32.123Z,4.73
2019-03-15T21:48:38.498Z,3.37
2019-03-15T21:54:44.347Z,4.47
2019-03-15T22:01:01.594Z,3.53
2019-03-15T22:06:59.052Z,3.70
2019-03-15T22:13:04.939Z,3.47
2019-03-15T22:19:10.843Z,3.83
2019-03-15T22:25:16.847Z,4.13
2019-03-15T22:31:22.751Z,4.37
2019-03-15T22:37:28.540Z,3.70
2019-03-15T22:43:34.380Z,3.87
2019-03-15T22:49:40.207Z,3.73
2019-03-15T22:55:45.937Z,4.30
2019-03-15T23:01:51.749Z,4.10
2019-03-15T23:07:57.669Z,4.03
2019-03-15T23:14:03.570Z,4.37
2019-03-15T23:20:09.655Z,4.40
2019-03-15T23:26:15.545Z,3.73
2019-03-15T23:32:21.268Z,4.20
2019-03-15T23:38:27.034Z,3.60
2019-03-15T23:44:32.794Z,3.17
2019-03-15T23:50:38.566Z,3.70
2019-03-15T23:56:44.459Z,3.53
